Time;durP1;ratioP1;P1;durP2;ratioP2;P2;SDS_P1;SDS_P2;PMS_P1;PMS_P2;Temp;Humidity;BMP_temperature;BMP_pressure;BME280_temperature;BME280_humidity;BME280_pressure;Samples;Min_cycle;Max_cycle;Signal;HPM_P1;HPM_P2
2021/11/16 00:07:00;;;;;;;55.13;39.05;;;6.90;1.00;;;;;;5018666;28;20235;-89
2021/11/16 00:09:30;;;;;;;52.38;37.17;;;6.80;1.00;;;;;;5047366;28;20271;-91
2021/11/16 00:11:57;;;;;;;54.25;38.00;;;6.80;1.00;;;;;;5061744;28;20239;-90
2021/11/16 00:14:24;;;;;;;53.20;36.45;;;6.80;1.00;;;;;;5081237;28;20221;-92
2021/11/16 00:16:53;;;;;;;60.05;37.25;;;6.80;1.00;;;;;;5069011;28;20283;-87
2021/11/16 00:19:21;;;;;;;53.97;38.00;;;6.80;1.00;;;;;;5055835;28;21129;-86
2021/11/16 00:21:50;;;;;;;53.00;37.40;;;6.90;1.00;;;;;;5051156;28;21287;-89
2021/11/16 00:24:20;;;;;;;52.65;37.40;;;6.90;1.00;;;;;;5060241;28;21131;-89
2021/11/16 00:26:47;;;;;;;57.20;37.78;;;6.90;1.00;;;;;;5053515;28;20611;-88
2021/11/16 00:29:15;;;;;;;57.08;37.80;;;6.90;1.00;;;;;;5063090;28;20253;-88
2021/11/16 00:31:42;;;;;;;54.75;37.78;;;6.90;1.00;;;;;;5057872;28;20473;-87
2021/11/16 00:34:10;;;;;;;54.90;38.00;;;7.00;1.00;;;;;;5072894;28;20239;-88
2021/11/16 00:36:37;;;;;;;55.53;36.45;;;7.00;1.00;;;;;;5057677;28;20226;-89
2021/11/16 00:39:05;;;;;;;57.67;38.20;;;7.00;1.00;;;;;;5067198;28;20278;-90
2021/11/16 00:41:36;;;;;;;59.38;37.38;;;7.00;1.00;;;;;;5064308;28;20237;-88
2021/11/16 00:44:03;;;;;;;55.33;40.08;;;7.00;1.00;;;;;;5065950;28;20251;-89
2021/11/16 00:46:30;;;;;;;56.97;40.30;;;7.00;1.00;;;;;;5066544;28;20692;-88
2021/11/16 00:48:57;;;;;;;57.72;38.30;;;7.00;1.00;;;;;;5069181;28;20390;-87
2021/11/16 00:51:26;;;;;;;60.58;40.38;;;7.00;1.00;;;;;;5070166;28;20225;-89
2021/11/16 00:53:53;;;;;;;59.38;38.50;;;6.90;1.00;;;;;;5063058;28;20226;-90
2021/11/16 00:56:20;;;;;;;61.78;39.90;;;6.90;1.00;;;;;;5080165;28;20230;-86
2021/11/16 00:58:48;;;;;;;57.88;38.42;;;6.80;1.00;;;;;;5068491;28;20232;-88
2021/11/16 01:01:15;;;;;;;57.47;38.28;;;6.80;1.00;;;;;;5061978;28;20618;-89
2021/11/16 01:03:42;;;;;;;57.53;38.65;;;6.80;1.00;;;;;;5064990;28;20236;-90
2021/11/16 01:06:10;;;;;;;55.55;38.08;;;6.80;1.00;;;;;;5065713;28;20221;-89
2021/11/16 01:08:38;;;;;;;57.35;37.50;;;6.80;1.00;;;;;;5068350;28;20229;-87
2021/11/16 01:11:05;;;;;;;56.95;42.58;;;6.80;1.00;;;;;;5063411;28;20230;-88
2021/11/16 01:13:34;;;;;;;54.67;37.30;;;6.70;1.00;;;;;;5065975;28;20242;-89
2021/11/16 01:16:02;;;;;;;59.65;39.42;;;6.70;1.00;;;;;;5058870;28;20221;-89
2021/11/16 01:18:31;;;;;;;66.30;39.90;;;6.70;1.00;;;;;;5064527;28;20261;-86
2021/11/16 01:21:01;;;;;;;65.70;38.65;;;6.70;1.00;;;;;;5064018;28;20237;-86
2021/11/16 01:23:28;;;;;;;58.63;39.67;;;6.60;1.00;;;;;;5062569;28;20711;-86
2021/11/16 01:25:59;;;;;;;56.58;39.92;;;6.60;1.00;;;;;;5061085;28;20251;-88
2021/11/16 01:28:28;;;;;;;61.95;40.17;;;6.60;1.00;;;;;;5061467;28;20236;-89
2021/11/16 01:30:59;;;;;;;57.22;38.55;;;6.70;1.00;;;;;;5052696;28;20226;-89
2021/11/16 01:33:29;;;;;;;63.80;43.00;;;6.60;1.00;;;;;;5058002;28;20248;-89
2021/11/16 01:35:57;;;;;;;61.25;39.55;;;6.60;1.00;;;;;;5064650;28;20319;-90
2021/11/16 01:38:26;;;;;;;54.67;37.25;;;6.60;1.00;;;;;;5067396;28;20639;-88
2021/11/16 01:40:54;;;;;;;59.10;40.08;;;6.60;1.00;;;;;;5063301;28;20233;-89
2021/11/16 01:43:23;;;;;;;56.50;39.40;;;6.50;1.00;;;;;;5061560;28;20220;-87
2021/11/16 01:45:51;;;;;;;57.10;40.63;;;6.50;1.00;;;;;;5067973;28;20239;-87
2021/11/16 01:48:18;;;;;;;57.42;38.47;;;6.50;1.00;;;;;;5065512;28;20290;-89
2021/11/16 01:50:46;;;;;;;58.90;40.08;;;6.60;1.00;;;;;;5067734;28;20240;-87
2021/11/16 01:53:14;;;;;;;60.13;40.75;;;6.60;1.00;;;;;;5068249;28;20220;-89
2021/11/16 01:55:41;;;;;;;56.90;37.45;;;6.50;1.00;;;;;;5065983;28;20225;-85
2021/11/16 01:58:09;;;;;;;56.25;39.05;;;6.50;1.00;;;;;;5063123;28;20261;-87
2021/11/16 02:00:43;;;;;;;62.13;41.28;;;6.50;1.00;;;;;;5065416;28;20239;-87
2021/11/16 02:03:12;;;;;;;60.72;39.88;;;6.50;1.00;;;;;;5064627;28;20234;-88
2021/11/16 02:05:42;;;;;;;60.13;38.65;;;6.50;1.00;;;;;;5063417;28;21508;-87
2021/11/16 02:08:10;;;;;;;60.10;41.08;;;6.60;1.00;;;;;;5065547;28;20264;-86
2021/11/16 02:10:39;;;;;;;58.95;40.03;;;6.50;1.00;;;;;;5067230;28;21122;-89
2021/11/16 02:13:06;;;;;;;54.28;37.85;;;6.50;1.00;;;;;;5068919;28;20333;-88
2021/11/16 02:15:37;;;;;;;62.95;39.83;;;6.50;1.00;;;;;;5069636;28;20229;-89
2021/11/16 02:18:07;;;;;;;61.53;38.80;;;6.50;1.00;;;;;;5064777;28;20297;-88
2021/11/16 02:20:37;;;;;;;57.05;37.00;;;6.50;1.00;;;;;;5066013;28;20771;-86
2021/11/16 02:23:04;;;;;;;62.17;40.22;;;6.50;1.00;;;;;;5066158;28;20224;-87
2021/11/16 02:25:32;;;;;;;65.20;39.15;;;6.40;1.00;;;;;;5072152;28;20262;-86
2021/11/16 02:27:59;;;;;;;59.13;37.80;;;6.30;1.00;;;;;;5077316;28;20225;-86
2021/11/16 02:30:27;;;;;;;58.78;38.42;;;6.30;1.00;;;;;;5067952;28;20229;-86
2021/11/16 02:32:55;;;;;;;62.10;40.92;;;6.30;1.00;;;;;;5060376;28;20225;-88
2021/11/16 02:35:24;;;;;;;61.75;37.03;;;6.40;1.00;;;;;;5062206;28;20237;-89
2021/11/16 02:37:54;;;;;;;61.28;38.38;;;6.40;1.00;;;;;;5067634;28;20252;-86
2021/11/16 02:40:22;;;;;;;55.33;37.63;;;6.40;1.00;;;;;;5076861;28;20233;-91
2021/11/16 02:42:50;;;;;;;64.40;40.22;;;6.50;1.00;;;;;;5064838;28;20704;-87
2021/11/16 02:45:19;;;;;;;57.50;40.00;;;6.50;1.00;;;;;;5057506;28;20233;-87
2021/11/16 02:47:48;;;;;;;54.45;37.22;;;6.50;1.00;;;;;;5057952;28;20248;-86
2021/11/16 02:50:16;;;;;;;63.33;39.75;;;6.40;1.00;;;;;;5059838;28;20225;-87
2021/11/16 02:52:43;;;;;;;61.28;39.60;;;6.40;1.00;;;;;;5060278;28;20345;-86
2021/11/16 02:55:12;;;;;;;56.95;38.67;;;6.40;1.00;;;;;;5066604;28;20217;-88
2021/11/16 02:57:39;;;;;;;55.47;38.20;;;6.20;1.00;;;;;;5065390;28;20222;-86
2021/11/16 03:00:10;;;;;;;60.97;38.58;;;6.30;1.00;;;;;;5064908;28;20939;-85
2021/11/16 03:02:40;;;;;;;56.22;37.55;;;6.30;1.00;;;;;;5072022;28;20223;-90
2021/11/16 03:05:09;;;;;;;52.33;37.33;;;6.40;1.00;;;;;;5073054;28;20230;-86
2021/11/16 03:07:41;;;;;;;62.55;41.00;;;6.40;1.00;;;;;;5057887;28;20221;-89
2021/11/16 03:10:09;;;;;;;58.58;37.90;;;6.30;1.00;;;;;;5063466;28;20217;-87
2021/11/16 03:12:38;;;;;;;60.17;36.38;;;6.30;1.00;;;;;;5060392;28;20627;-88
2021/11/16 03:15:07;;;;;;;60.53;38.75;;;6.40;1.00;;;;;;5058487;28;20240;-90
2021/11/16 03:17:34;;;;;;;55.10;36.53;;;6.40;1.00;;;;;;5066703;28;20272;-87
2021/11/16 03:20:08;;;;;;;51.58;35.55;;;6.40;1.00;;;;;;5083176;28;20232;-91
2021/11/16 03:22:44;;;;;;;54.80;37.25;;;6.40;1.00;;;;;;5064503;28;21022;-89
2021/11/16 03:25:11;;;;;;;56.78;35.95;;;6.40;1.00;;;;;;5069654;28;20525;-88
2021/11/16 03:27:42;;;;;;;60.20;38.45;;;6.50;1.00;;;;;;5067241;28;20258;-88
2021/11/16 03:30:10;;;;;;;54.45;37.15;;;6.50;1.00;;;;;;5061621;28;20221;-87
2021/11/16 03:32:38;;;;;;;57.20;37.22;;;6.40;1.00;;;;;;5062741;28;20700;-88
2021/11/16 03:35:08;;;;;;;60.22;38.83;;;6.40;1.00;;;;;;5068297;28;20232;-87
2021/11/16 03:37:43;;;;;;;61.58;41.05;;;6.30;1.00;;;;;;5071006;28;20344;-89
2021/11/16 03:40:12;;;;;;;58.92;38.85;;;6.40;1.00;;;;;;5075584;28;20240;-89
2021/11/16 03:42:46;;;;;;;57.75;37.17;;;6.40;1.00;;;;;;5072696;28;20237;-90
2021/11/16 03:45:15;;;;;;;59.80;38.20;;;6.40;1.00;;;;;;5071153;28;20254;-87
2021/11/16 03:47:42;;;;;;;64.43;39.70;;;6.40;1.00;;;;;;5075954;28;20281;-88
2021/11/16 03:50:12;;;;;;;59.05;37.55;;;6.30;1.00;;;;;;5072346;28;20225;-87
2021/11/16 03:52:41;;;;;;;56.08;38.42;;;6.30;1.00;;;;;;5076411;28;20248;-88
2021/11/16 03:55:10;;;;;;;56.75;36.67;;;6.30;1.00;;;;;;5075164;28;20209;-88
2021/11/16 03:57:37;;;;;;;66.10;39.08;;;6.20;1.00;;;;;;5076808;28;20779;-89
2021/11/16 04:00:07;;;;;;;61.35;41.35;;;6.20;1.00;;;;;;5079891;28;20227;-88
2021/11/16 04:02:35;;;;;;;53.47;37.03;;;6.20;1.00;;;;;;5074822;28;20221;-89
2021/11/16 04:05:04;;;;;;;62.72;39.35;;;6.20;1.00;;;;;;5085397;28;20213;-91
2021/11/16 04:07:31;;;;;;;63.25;39.53;;;6.20;1.00;;;;;;5090156;28;20216;-89
2021/11/16 04:09:59;;;;;;;61.42;38.92;;;6.20;1.00;;;;;;5089031;28;20217;-91
2021/11/16 04:12:27;;;;;;;60.40;40.30;;;6.20;1.00;;;;;;5087555;28;20220;-89
2021/11/16 04:14:54;;;;;;;66.72;41.83;;;6.20;1.00;;;;;;5089184;28;20375;-90
2021/11/16 04:17:25;;;;;;;59.13;38.10;;;6.20;1.00;;;;;;5080703;27;20229;-89
2021/11/16 04:19:52;;;;;;;62.78;40.85;;;6.10;1.00;;;;;;5066978;28;21047;-88
2021/11/16 04:22:19;;;;;;;61.33;40.97;;;6.10;1.00;;;;;;5061967;28;20229;-88
2021/11/16 04:24:47;;;;;;;58.67;38.00;;;6.20;1.00;;;;;;5062861;28;20217;-88
2021/11/16 04:27:14;;;;;;;57.45;39.47;;;6.20;1.00;;;;;;5065719;28;20248;-88
2021/11/16 04:29:42;;;;;;;62.97;40.08;;;6.20;1.00;;;;;;5068286;28;20217;-87
2021/11/16 04:32:10;;;;;;;67.28;42.90;;;6.20;1.00;;;;;;5063780;28;20236;-89
2021/11/16 04:34:39;;;;;;;60.53;41.13;;;6.20;1.00;;;;;;5068019;28;20230;-87
2021/11/16 04:37:06;;;;;;;58.88;39.72;;;6.30;1.00;;;;;;5069218;28;20325;-87
2021/11/16 04:39:34;;;;;;;65.70;41.60;;;6.20;1.00;;;;;;5066529;28;20224;-87
2021/11/16 04:42:01;;;;;;;60.67;37.83;;;6.20;1.00;;;;;;5069461;28;23920;-87
2021/11/16 04:44:28;;;;;;;59.67;38.13;;;6.20;1.00;;;;;;5066987;28;20953;-89
2021/11/16 04:46:57;;;;;;;63.28;39.38;;;6.20;1.00;;;;;;5060067;28;20221;-89
2021/11/16 04:49:28;;;;;;;59.65;39.53;;;6.20;1.00;;;;;;5065410;28;20227;-88
2021/11/16 04:52:08;;;;;;;58.65;37.03;;;6.20;1.00;;;;;;5065281;28;20286;-90
2021/11/16 04:55:11;;;;;;;68.95;41.88;;;6.20;1.00;;;;;;5064303;28;20231;-87
2021/11/16 05:03:09;;;;;;;62.45;39.05;;;6.20;1.00;;;;;;5062249;28;20221;-87
2021/11/16 05:05:37;;;;;;;66.10;41.22;;;6.20;1.00;;;;;;5062962;28;20248;-88
2021/11/16 05:08:06;;;;;;;60.63;40.03;;;6.20;1.00;;;;;;5065360;28;20262;-88
2021/11/16 05:10:34;;;;;;;60.50;39.20;;;6.20;1.00;;;;;;5064398;28;20229;-89
2021/11/16 05:13:06;;;;;;;64.38;41.67;;;6.20;1.00;;;;;;5068481;28;22014;-87
2021/11/16 05:15:37;;;;;;;73.45;43.17;;;6.20;1.00;;;;;;5081206;28;20233;-89
2021/11/16 05:18:05;;;;;;;65.75;42.70;;;6.20;1.00;;;;;;5065517;28;20312;-86
2021/11/16 05:20:35;;;;;;;61.20;40.22;;;6.20;1.00;;;;;;5056172;28;20231;-79
2021/11/16 05:23:02;;;;;;;65.85;40.22;;;6.20;1.00;;;;;;5053870;28;20388;-79
2021/11/16 05:25:31;;;;;;;70.38;42.17;;;6.20;1.00;;;;;;5056859;28;20255;-80
2021/11/16 05:27:58;;;;;;;64.07;40.35;;;6.30;1.00;;;;;;5054583;28;20213;-78
2021/11/16 05:30:29;;;;;;;63.03;40.00;;;6.20;1.00;;;;;;5048682;28;20413;-79
2021/11/16 05:32:56;;;;;;;63.28;42.17;;;6.20;1.00;;;;;;5052470;28;20745;-78
2021/11/16 05:35:23;;;;;;;66.90;39.05;;;6.30;1.00;;;;;;5050477;28;20327;-77
2021/11/16 05:37:50;;;;;;;63.13;41.50;;;6.20;1.00;;;;;;5051968;28;21114;-79
2021/11/16 05:40:17;;;;;;;62.88;40.65;;;6.20;1.00;;;;;;5055842;28;20227;-79
2021/11/16 05:42:46;;;;;;;59.20;39.83;;;6.20;1.00;;;;;;5063376;28;20239;-79
2021/11/16 05:45:13;;;;;;;69.00;40.88;;;6.20;1.00;;;;;;5052334;28;20296;-78
2021/11/16 05:47:41;;;;;;;72.20;43.78;;;6.20;1.00;;;;;;5052470;28;20230;-77
2021/11/16 05:50:10;;;;;;;67.05;42.70;;;6.20;1.00;;;;;;5055117;28;20229;-78
2021/11/16 05:52:37;;;;;;;65.97;42.10;;;6.20;1.00;;;;;;5055854;28;20225;-78
2021/11/16 05:55:08;;;;;;;75.15;48.58;;;6.20;1.00;;;;;;5052612;28;20228;-78
2021/11/16 05:57:36;;;;;;;63.33;42.42;;;6.20;1.00;;;;;;5049008;28;20717;-78
2021/11/16 06:00:07;;;;;;;70.78;43.45;;;6.20;1.00;;;;;;5051463;28;20240;-77
2021/11/16 06:02:34;;;;;;;69.95;44.70;;;6.20;1.00;;;;;;5050074;28;20235;-77
2021/11/16 06:05:01;;;;;;;71.00;44.08;;;6.20;1.00;;;;;;5045808;28;23382;-76
2021/11/16 06:07:28;;;;;;;64.97;43.65;;;6.20;1.00;;;;;;5045714;28;20290;-76
2021/11/16 06:09:55;;;;;;;75.20;43.42;;;6.20;1.00;;;;;;5060110;28;20236;-78
2021/11/16 06:12:22;;;;;;;62.47;39.83;;;6.30;1.00;;;;;;5047826;28;20218;-78
2021/11/16 06:14:49;;;;;;;64.30;41.05;;;6.20;1.00;;;;;;5050341;28;21062;-78
2021/11/16 06:17:20;;;;;;;67.55;39.97;;;6.10;1.00;;;;;;5047786;28;20237;-78
2021/11/16 06:19:48;;;;;;;63.50;39.83;;;6.00;1.00;;;;;;5039859;28;20218;-78
2021/11/16 06:22:15;;;;;;;69.95;40.50;;;6.10;1.00;;;;;;5049336;28;20243;-78
2021/11/16 06:24:42;;;;;;;70.82;41.15;;;6.00;1.00;;;;;;5053059;28;20221;-78
2021/11/16 06:27:09;;;;;;;59.65;37.35;;;6.00;1.00;;;;;;5051443;28;20232;-78
2021/11/16 06:29:37;;;;;;;61.10;38.30;;;6.00;1.00;;;;;;5051532;28;20228;-77
2021/11/16 06:32:06;;;;;;;61.63;36.92;;;6.00;1.00;;;;;;5054219;28;20223;-78
2021/11/16 06:34:35;;;;;;;64.55;36.67;;;6.00;1.00;;;;;;5049692;28;20818;-78
2021/11/16 06:37:02;;;;;;;59.05;37.08;;;6.10;1.00;;;;;;5050814;28;20259;-78
2021/11/16 06:39:29;;;;;;;60.70;35.53;;;6.10;1.00;;;;;;5052925;28;20228;-80
2021/11/16 06:41:59;;;;;;;57.67;35.85;;;6.10;1.00;;;;;;5047217;28;20735;-79
2021/11/16 06:44:27;;;;;;;58.83;36.80;;;6.20;1.00;;;;;;5058585;28;20228;-79
2021/11/16 06:46:56;;;;;;;64.13;39.15;;;6.20;1.00;;;;;;5059680;28;20304;-81
2021/11/16 06:49:23;;;;;;;61.85;36.67;;;6.10;1.00;;;;;;5061997;28;20292;-79
2021/11/16 06:51:57;;;;;;;58.75;37.85;;;6.10;1.00;;;;;;5058805;28;20241;-80
2021/11/16 06:54:25;;;;;;;56.45;34.72;;;6.00;1.00;;;;;;5057986;28;20217;-77
2021/11/16 06:56:54;;;;;;;52.45;35.10;;;6.00;1.00;;;;;;5050798;28;20224;-78
2021/11/16 06:59:24;;;;;;;57.20;36.38;;;6.00;1.00;;;;;;5054601;28;20640;-82
2021/11/16 07:01:52;;;;;;;53.95;36.67;;;6.00;1.00;;;;;;5055348;28;20237;-80
2021/11/16 07:04:19;;;;;;;56.78;32.67;;;6.00;1.00;;;;;;5059132;28;20325;-80
2021/11/16 07:06:50;;;;;;;55.30;33.03;;;6.00;1.00;;;;;;5060714;28;21047;-81
2021/11/16 07:09:20;;;;;;;54.58;34.30;;;6.00;1.00;;;;;;5058654;28;20237;-81
2021/11/16 07:11:50;;;;;;;53.88;33.08;;;6.10;1.00;;;;;;5054214;28;20224;-80
2021/11/16 07:14:20;;;;;;;56.85;34.17;;;6.00;1.00;;;;;;5057859;28;20212;-81
2021/11/16 07:16:59;;;;;;;64.15;36.38;;;6.00;1.00;;;;;;5058022;28;20221;-83
2021/11/16 07:19:35;;;;;;;55.80;33.75;;;6.00;1.00;;;;;;5068239;28;20230;-80
2021/11/16 07:22:06;;;;;;;60.38;37.15;;;6.00;1.00;;;;;;5062017;28;20264;-82
2021/11/16 07:24:41;;;;;;;54.40;32.35;;;6.10;1.00;;;;;;5060903;28;20233;-80
2021/11/16 07:27:10;;;;;;;62.85;35.67;;;6.00;1.00;;;;;;5058205;28;20220;-81
2021/11/16 07:29:41;;;;;;;58.63;34.83;;;6.00;1.00;;;;;;5060600;28;20280;-82
2021/11/16 07:32:11;;;;;;;58.97;35.90;;;6.10;1.00;;;;;;5059804;28;20221;-81
2021/11/16 07:34:39;;;;;;;62.78;37.00;;;6.10;1.00;;;;;;5066020;28;21012;-82
2021/11/16 07:37:09;;;;;;;61.25;37.65;;;6.10;1.00;;;;;;5060990;28;20221;-82
2021/11/16 07:39:53;;;;;;;62.72;36.08;;;6.10;1.00;;;;;;5053902;28;20225;-81
2021/11/16 07:42:22;;;;;;;59.78;36.53;;;6.10;1.00;;;;;;5059835;28;20238;-81
2021/11/16 07:45:18;;;;;;;65.28;39.47;;;6.10;1.00;;;;;;5060608;28;20239;-81
2021/11/16 07:47:51;;;;;;;61.78;37.45;;;6.20;1.00;;;;;;5036517;28;20233;-80
2021/11/16 07:50:38;;;;;;;60.83;38.70;;;6.20;1.00;;;;;;5059639;28;20225;-80
2021/11/16 07:53:11;;;;;;;69.45;38.15;;;6.30;1.00;;;;;;5056503;28;22032;-80
2021/11/16 07:55:41;;;;;;;62.17;36.10;;;6.40;1.00;;;;;;5062955;28;20428;-80
2021/11/16 07:58:10;;;;;;;76.40;38.35;;;6.30;1.00;;;;;;5053557;28;20979;-79
2021/11/16 08:00:40;;;;;;;68.05;38.50;;;6.40;1.00;;;;;;5061642;28;20226;-81
2021/11/16 08:03:11;;;;;;;58.63;37.10;;;6.60;1.00;;;;;;5054458;28;20307;-80
2021/11/16 08:05:45;;;;;;;60.78;37.97;;;6.60;1.00;;;;;;5062978;28;20322;-81
2021/11/16 08:08:23;;;;;;;64.95;39.75;;;6.70;1.00;;;;;;5064976;28;20260;-81
2021/11/16 08:11:06;;;;;;;60.72;37.67;;;6.80;1.00;;;;;;5076276;28;20243;-81
2021/11/16 08:13:34;;;;;;;67.15;40.75;;;6.80;1.00;;;;;;5053399;28;20798;-81
2021/11/16 08:16:09;;;;;;;78.18;42.05;;;6.90;1.00;;;;;;5059418;28;20724;-80
2021/11/16 08:18:45;;;;;;;65.53;40.15;;;7.00;1.00;;;;;;5057921;28;20305;-82
2021/11/16 08:21:13;;;;;;;67.75;38.35;;;7.10;1.00;;;;;;5059414;28;20235;-82
2021/11/16 08:23:50;;;;;;;61.53;39.30;;;7.20;1.00;;;;;;5055993;28;20879;-80
2021/11/16 08:26:20;;;;;;;62.10;39.13;;;7.20;1.00;;;;;;5056975;28;20228;-81
2021/11/16 08:28:48;;;;;;;67.38;38.95;;;7.30;1.00;;;;;;5061397;28;20277;-83
2021/11/16 08:31:16;;;;;;;65.65;37.83;;;7.40;1.00;;;;;;5057918;28;20268;-81
2021/11/16 08:33:44;;;;;;;60.47;38.25;;;7.40;1.00;;;;;;5060223;28;20494;-81
2021/11/16 08:36:11;;;;;;;67.35;40.10;;;7.50;1.00;;;;;;5059708;28;20307;-81
2021/11/16 08:38:40;;;;;;;57.15;36.80;;;7.60;1.00;;;;;;5054276;28;20218;-82
2021/11/16 08:41:07;;;;;;;59.25;36.30;;;7.60;1.00;;;;;;5060483;28;20225;-82
2021/11/16 08:43:39;;;;;;;60.53;35.90;;;7.60;1.00;;;;;;5062355;28;20236;-81
2021/11/16 08:46:08;;;;;;;59.90;36.75;;;7.70;1.00;;;;;;5067092;28;20229;-83
2021/11/16 08:48:40;;;;;;;60.85;35.80;;;7.70;1.00;;;;;;5061471;28;20255;-81
2021/11/16 08:51:09;;;;;;;60.58;36.55;;;7.80;1.00;;;;;;5058704;28;20224;-82
2021/11/16 08:53:39;;;;;;;59.47;37.58;;;7.80;1.00;;;;;;5060064;28;20789;-81
2021/11/16 08:56:08;;;;;;;58.55;36.50;;;7.90;1.00;;;;;;5067021;28;20284;-81
2021/11/16 08:58:36;;;;;;;56.63;36.70;;;8.00;1.00;;;;;;5059718;28;21049;-82
2021/11/16 09:01:07;;;;;;;60.17;37.22;;;8.10;1.00;;;;;;5061818;28;20237;-81
2021/11/16 09:03:36;;;;;;;61.72;36.22;;;8.10;1.00;;;;;;5056547;28;20680;-80
2021/11/16 09:06:13;;;;;;;63.58;36.92;;;8.20;1.00;;;;;;5059941;28;20224;-82
2021/11/16 09:08:41;;;;;;;60.97;37.30;;;8.30;1.00;;;;;;5050056;28;20250;-81
2021/11/16 09:11:14;;;;;;;58.15;37.15;;;8.30;1.00;;;;;;5063298;28;20425;-81
2021/11/16 09:13:43;;;;;;;61.58;36.65;;;8.30;1.00;;;;;;5053701;28;20231;-81
2021/11/16 09:16:14;;;;;;;57.95;33.92;;;8.30;1.00;;;;;;5055804;28;20222;-80
2021/11/16 09:18:42;;;;;;;61.33;38.17;;;8.30;1.00;;;;;;5053769;28;20217;-83
2021/11/16 09:21:11;;;;;;;59.28;37.55;;;8.30;1.00;;;;;;5057220;28;20215;-80
2021/11/16 09:23:41;;;;;;;54.72;35.38;;;8.30;1.00;;;;;;5056786;28;20241;-80
2021/11/16 09:26:18;;;;;;;60.63;35.25;;;8.30;1.00;;;;;;5050879;28;20265;-80
2021/11/16 09:28:49;;;;;;;58.63;33.50;;;8.40;1.00;;;;;;5054031;28;20227;-80
2021/11/16 09:31:26;;;;;;;50.15;32.95;;;8.50;1.00;;;;;;5057377;28;20245;-80
2021/11/16 09:33:55;;;;;;;52.90;33.85;;;8.70;1.00;;;;;;5060128;28;20242;-79
2021/11/16 09:36:25;;;;;;;49.17;34.25;;;8.70;1.00;;;;;;5050442;28;20229;-80
2021/11/16 09:38:54;;;;;;;55.15;36.15;;;8.60;1.00;;;;;;5058867;28;20218;-80
2021/11/16 09:41:35;;;;;;;55.60;34.75;;;8.60;1.00;;;;;;5054487;28;20218;-80
2021/11/16 09:44:07;;;;;;;51.88;34.75;;;8.50;1.00;;;;;;5060872;28;20314;-81
2021/11/16 09:46:47;;;;;;;57.47;36.60;;;8.50;1.00;;;;;;5053258;28;21493;-78
2021/11/16 09:49:16;;;;;;;54.90;35.33;;;8.50;1.00;;;;;;5057337;28;20210;-80
2021/11/16 09:51:54;;;;;;;58.78;34.28;;;8.50;1.00;;;;;;5053062;28;20226;-79
2021/11/16 09:54:20;;;;;;;46.53;31.75;;;8.40;1.00;;;;;;5054406;28;20226;-80
2021/11/16 09:56:47;;;;;;;59.07;33.87;;;8.30;1.00;;;;;;5058947;28;20716;-80
2021/11/16 09:59:25;;;;;;;53.35;35.58;;;8.30;1.00;;;;;;5060118;28;22927;-80
2021/11/16 10:01:52;;;;;;;58.33;35.95;;;8.30;1.00;;;;;;5053997;28;20223;-80
2021/11/16 10:04:25;;;;;;;51.70;34.20;;;8.40;1.00;;;;;;5056454;28;20312;-79
2021/11/16 10:06:53;;;;;;;46.87;33.13;;;8.50;1.00;;;;;;5059292;28;20229;-81
2021/11/16 10:09:19;;;;;;;52.00;33.55;;;8.50;1.00;;;;;;5058620;28;20464;-78
2021/11/16 10:11:50;;;;;;;51.78;33.55;;;8.50;1.00;;;;;;5062645;28;20988;-81
2021/11/16 10:14:21;;;;;;;46.05;30.60;;;8.50;1.00;;;;;;5059422;28;20231;-78
2021/11/16 10:16:50;;;;;;;56.60;35.08;;;8.50;1.00;;;;;;5061287;28;20226;-79
2021/11/16 10:19:17;;;;;;;49.70;33.17;;;8.50;1.00;;;;;;5060468;28;20973;-80
2021/11/16 10:21:44;;;;;;;55.17;34.38;;;8.60;1.00;;;;;;5056841;28;20221;-78
2021/11/16 10:24:29;;;;;;;57.33;34.95;;;8.60;1.00;;;;;;5056874;28;20235;-80
2021/11/16 10:26:58;;;;;;;62.80;39.65;;;8.70;1.00;;;;;;5055726;28;20234;-77
2021/11/16 10:29:27;;;;;;;55.33;36.13;;;8.80;1.00;;;;;;5058321;28;20235;-81
2021/11/16 10:31:54;;;;;;;55.80;34.60;;;8.80;1.00;;;;;;5053594;28;20859;-79
2021/11/16 10:34:37;;;;;;;55.10;34.47;;;8.80;1.00;;;;;;5054131;28;20219;-80
2021/11/16 10:37:05;;;;;;;54.13;35.95;;;8.80;1.00;;;;;;5052744;28;21069;-81
2021/11/16 10:39:32;;;;;;;58.35;36.20;;;8.90;1.00;;;;;;5045064;28;21048;-81
2021/11/16 10:42:03;;;;;;;57.08;35.78;;;9.10;1.00;;;;;;5054326;28;20247;-81
2021/11/16 10:44:36;;;;;;;56.17;33.67;;;9.20;1.00;;;;;;5061495;28;20226;-80
2021/11/16 10:47:06;;;;;;;57.50;35.10;;;9.30;1.00;;;;;;5057663;28;20224;-80
2021/11/16 10:49:33;;;;;;;54.10;34.60;;;9.50;1.00;;;;;;5054394;28;20896;-81
2021/11/16 10:52:00;;;;;;;50.17;34.40;;;9.60;1.00;;;;;;5054498;28;20548;-81
2021/11/16 10:54:26;;;;;;;52.33;34.50;;;9.90;1.00;;;;;;5053731;28;20470;-80
2021/11/16 10:56:58;;;;;;;47.00;34.20;;;10.20;1.00;;;;;;5051425;28;20225;-80
2021/11/16 10:59:29;;;;;;;52.37;34.17;;;10.20;1.00;;;;;;5051081;28;21008;-80
2021/11/16 11:01:59;;;;;;;49.73;32.33;;;10.60;1.00;;;;;;5048981;28;20946;-80
2021/11/16 11:04:27;;;;;;;48.67;33.73;;;11.10;1.00;;;;;;5051905;28;20490;-80
2021/11/16 11:06:55;;;;;;;49.60;32.10;;;11.50;1.00;;;;;;5055204;28;21040;-80
2021/11/16 11:09:23;;;;;;;45.80;32.10;;;11.50;1.00;;;;;;5055187;28;20444;-81
2021/11/16 11:11:54;;;;;;;48.87;32.17;;;11.40;1.00;;;;;;5048697;28;20459;-80
2021/11/16 11:14:24;;;;;;;48.57;33.40;;;11.20;1.00;;;;;;5049715;28;20471;-78
2021/11/16 11:16:53;;;;;;;52.67;35.90;;;10.90;1.00;;;;;;5046527;28;20542;-80
2021/11/16 11:19:25;;;;;;;49.63;33.90;;;10.80;1.00;;;;;;5051739;28;20448;-80
2021/11/16 11:21:57;;;;;;;52.40;33.50;;;10.60;1.00;;;;;;5052454;28;20476;-80
2021/11/16 11:24:29;;;;;;;45.13;32.23;;;10.50;1.00;;;;;;5052259;28;20239;-81
2021/11/16 11:26:59;;;;;;;48.47;33.50;;;10.40;1.00;;;;;;5052234;28;20478;-79
2021/11/16 11:29:31;;;;;;;53.47;35.57;;;10.30;1.00;;;;;;5054470;28;20236;-81
2021/11/16 11:32:06;;;;;;;47.87;33.57;;;10.40;1.00;;;;;;5053522;28;20470;-79
2021/11/16 11:34:41;;;;;;;53.73;34.73;;;10.70;1.00;;;;;;5063552;28;20490;-80
2021/11/16 11:37:12;;;;;;;52.50;33.53;;;10.60;1.00;;;;;;5068157;28;20475;-80
2021/11/16 11:39:39;;;;;;;47.43;33.37;;;10.50;1.00;;;;;;5058961;28;20825;-79
2021/11/16 11:42:09;;;;;;;46.70;32.17;;;10.40;1.00;;;;;;5046967;28;20475;-81
2021/11/16 11:44:43;;;;;;;48.60;33.57;;;10.20;1.00;;;;;;5055261;28;20439;-81
2021/11/16 11:47:10;;;;;;;47.13;32.83;;;10.20;1.00;;;;;;5049971;28;20466;-80
2021/11/16 11:49:40;;;;;;;49.93;32.73;;;10.20;1.00;;;;;;5059136;28;21148;-81
2021/11/16 11:52:07;;;;;;;54.87;35.50;;;10.30;1.00;;;;;;5050393;28;21049;-79
2021/11/16 11:54:34;;;;;;;56.53;36.00;;;10.30;1.00;;;;;;5056918;28;20444;-80
2021/11/16 11:57:01;;;;;;;52.80;32.10;;;10.30;1.00;;;;;;5051971;28;20446;-81
2021/11/16 11:59:28;;;;;;;54.63;34.67;;;10.40;1.00;;;;;;5055797;28;20448;-81
2021/11/16 12:01:56;;;;;;;49.77;32.93;;;10.50;1.00;;;;;;5060604;28;20502;-78
2021/11/16 12:04:23;;;;;;;47.83;33.00;;;10.50;1.00;;;;;;5055394;28;25306;-80
2021/11/16 12:06:53;;;;;;;49.23;34.10;;;10.60;1.00;;;;;;5060761;28;20454;-79
2021/11/16 12:09:21;;;;;;;48.20;32.97;;;10.60;1.00;;;;;;5066164;28;21171;-78
2021/11/16 12:11:48;;;;;;;51.20;36.03;;;10.60;1.00;;;;;;5061023;28;20460;-78
2021/11/16 12:14:33;;;;;;;52.07;33.17;;;10.60;1.00;;;;;;5062159;28;20444;-79
2021/11/16 12:17:04;;;;;;;53.10;34.10;;;10.60;1.00;;;;;;5064847;28;20468;-79
2021/11/16 12:19:43;;;;;;;50.07;33.17;;;10.50;1.00;;;;;;5062377;28;20470;-80
2021/11/16 12:22:19;;;;;;;50.80;31.37;;;10.40;1.00;;;;;;5061731;28;20456;-80
2021/11/16 12:24:47;;;;;;;50.17;33.37;;;10.40;1.00;;;;;;5059221;28;20509;-79
2021/11/16 12:27:16;;;;;;;48.10;33.10;;;10.40;1.00;;;;;;5058199;28;20454;-79
2021/11/16 12:29:46;;;;;;;46.97;31.80;;;10.30;1.00;;;;;;5054061;28;20947;-79
2021/11/16 12:32:21;;;;;;;51.33;33.10;;;10.30;1.00;;;;;;5054816;28;20439;-80
2021/11/16 12:34:51;;;;;;;44.57;30.77;;;10.30;1.00;;;;;;5050595;28;20431;-82
2021/11/16 12:37:43;;;;;;;50.50;32.60;;;10.30;1.00;;;;;;5056595;28;20550;-79
2021/11/16 12:40:40;;;;;;;40.00;27.70;;;10.30;1.00;;;;;;5052465;28;20468;-78
2021/11/16 12:43:20;;;;;;;52.47;40.87;;;10.40;1.00;;;;;;5046765;28;20476;-81
2021/11/16 12:45:49;;;;;;;44.23;31.67;;;10.30;1.00;;;;;;5060661;28;20431;-81
2021/11/16 12:48:18;;;;;;;43.60;28.07;;;10.20;1.00;;;;;;5051959;28;20469;-79
2021/11/16 12:51:11;;;;;;;40.80;29.20;;;10.20;1.00;;;;;;5057739;28;20517;-80
2021/11/16 12:53:58;;;;;;;45.93;30.30;;;10.20;1.00;;;;;;5059213;28;20490;-79
2021/11/16 12:56:52;;;;;;;44.28;30.10;;;9.90;1.00;;;;;;5052887;28;20451;-80
2021/11/16 12:59:22;;;;;;;44.00;31.40;;;9.80;1.00;;;;;;5052523;28;20233;-80
2021/11/16 13:01:52;;;;;;;46.60;31.00;;;9.90;1.00;;;;;;5052035;28;20874;-79
2021/11/16 13:04:39;;;;;;;46.77;29.50;;;9.90;1.00;;;;;;5051047;28;20915;-78
2021/11/16 13:07:17;;;;;;;44.73;30.80;;;9.90;1.00;;;;;;5057284;28;20415;-80
2021/11/16 13:09:48;;;;;;;44.20;31.77;;;9.80;1.00;;;;;;5059871;28;20864;-79
2021/11/16 13:12:44;;;;;;;46.40;30.47;;;9.80;1.00;;;;;;5061792;28;20944;-79